Time;durP1;ratioP1;P1;durP2;ratioP2;P2;SDS_P1;SDS_P2;PMS_P1;PMS_P2;Temp;Humidity;BMP_temperature;BMP_pressure;BME280_temperature;BME280_humidity;BME280_pressure;Samples;Min_cycle;Max_cycle;Signal;HPM_P1;HPM_P2
2022/09/16 00:00:36;;;;;;;8.82;3.90;;;;;;;;;;5014740;28;20041;-83
2022/09/16 00:03:02;;;;;;;3.80;3.28;;;;;;;;;;5015415;28;20389;-80
2022/09/16 00:05:28;;;;;;;6.78;3.92;;;;;;;;;;5015355;28;20017;-83
2022/09/16 00:07:54;;;;;;;6.88;4.20;;;;;;;;;;5015326;28;20621;-77
2022/09/16 00:10:21;;;;;;;6.75;4.07;;;;;;;;;;5014820;28;20044;-77
2022/09/16 00:12:48;;;;;;;5.40;3.80;;;;;;;;;;5015252;28;20026;-79
2022/09/16 00:15:14;;;;;;;5.57;4.35;;;;;;;;;;5014917;28;20041;-80
2022/09/16 00:17:40;;;;;;;5.07;3.30;;;;;;;;;;5014969;28;20045;-78
2022/09/16 00:20:07;;;;;;;6.32;3.45;;;;;;;;;;5013845;28;20065;-82
2022/09/16 00:22:33;;;;;;;6.20;4.00;;;;;;;;;;5014837;28;20478;-81
2022/09/16 00:24:59;;;;;;;5.43;3.40;;;;;;;;;;5014756;28;20022;-83
2022/09/16 00:27:25;;;;;;;4.40;3.45;;;;;;;;;;5014588;28;20548;-83
2022/09/16 00:29:51;;;;;;;5.22;3.65;;;;;;;;;;5014616;28;20045;-83
2022/09/16 00:32:17;;;;;;;5.38;3.35;;;;;;;;;;5014610;28;20014;-81
2022/09/16 00:34:43;;;;;;;5.93;3.50;;;;;;;;;;5014496;28;20042;-82
2022/09/16 00:37:09;;;;;;;6.72;4.13;;;;;;;;;;5014480;28;20029;-85
2022/09/16 00:39:37;;;;;;;5.20;3.70;;;;;;;;;;5014517;28;20042;-83
2022/09/16 00:42:04;;;;;;;6.68;3.85;;;;;;;;;;5014664;28;20033;-81
2022/09/16 00:44:49;;;;;;;5.60;3.85;;;;;;;;;;5014378;28;20026;-78
2022/09/16 00:47:17;;;;;;;7.10;3.65;;;;;;;;;;5013944;28;20038;-82
2022/09/16 00:49:45;;;;;;;7.55;4.70;;;;;;;;;;5014546;28;20022;-83
2022/09/16 00:52:11;;;;;;;4.47;3.50;;;;;;;;;;5014325;28;20018;-83
2022/09/16 00:54:39;;;;;;;5.10;3.72;;;;;;;;;;4997149;28;20018;-82
2022/09/16 00:57:07;;;;;;;8.05;4.05;;;;;;;;;;5013321;28;20036;-82
2022/09/16 00:59:35;;;;;;;7.25;4.25;;;;;;;;;;5013820;28;20531;-82
2022/09/16 01:02:04;;;;;;;6.15;3.42;;;;;;;;;;5012764;28;20030;-80
2022/09/16 01:04:32;;;;;;;8.05;3.17;;;;;;;;;;5020971;28;20056;-81
2022/09/16 01:06:58;;;;;;;6.15;3.60;;;;;;;;;;5033887;28;20049;-80
2022/09/16 01:09:25;;;;;;;5.25;4.03;;;;;;;;;;5019982;28;20034;-83
2022/09/16 01:11:52;;;;;;;5.63;3.95;;;;;;;;;;5014266;28;20022;-81
2022/09/16 01:14:52;;;;;;;5.03;4.15;;;;;;;;;;5013770;28;20435;-79
2022/09/16 01:17:19;;;;;;;6.13;4.43;;;;;;;;;;5011977;28;20137;-83
2022/09/16 01:20:04;;;;;;;8.52;4.13;;;;;;;;;;5013747;28;20025;-81
2022/09/16 01:22:48;;;;;;;6.70;3.85;;;;;;;;;;5002114;28;20080;-83
2022/09/16 01:25:17;;;;;;;4.70;3.33;;;;;;;;;;5013542;28;20101;-83
2022/09/16 01:27:46;;;;;;;4.68;4.05;;;;;;;;;;5013743;28;20040;-79
2022/09/16 01:30:31;;;;;;;7.90;4.43;;;;;;;;;;5013577;28;20026;-85
2022/09/16 01:33:18;;;;;;;6.18;4.45;;;;;;;;;;5013131;28;20033;-81
2022/09/16 01:36:02;;;;;;;6.43;3.95;;;;;;;;;;5013562;28;20061;-82
2022/09/16 01:38:34;;;;;;;6.78;4.35;;;;;;;;;;5013395;28;20026;-79
2022/09/16 01:41:19;;;;;;;6.68;4.35;;;;;;;;;;5013282;28;20105;-81
2022/09/16 01:44:04;;;;;;;5.65;3.92;;;;;;;;;;5013520;28;20026;-83
2022/09/16 01:46:30;;;;;;;;;;;;;;;;;;5013830;28;20029;-80
2022/09/16 01:48:59;;;;;;;7.18;4.35;;;;;;;;;;5013161;28;20352;-81
2022/09/16 01:51:28;;;;;;;5.90;4.25;;;;;;;;;;5013179;28;20376;-79
2022/09/16 01:54:02;;;;;;;6.97;3.78;;;;;;;;;;5013072;28;20045;-81
2022/09/16 01:56:34;;;;;;;7.32;4.07;;;;;;;;;;5013438;28;20499;-84
2022/09/16 01:59:19;;;;;;;7.97;4.32;;;;;;;;;;5013348;28;20026;-81
2022/09/16 02:01:49;;;;;;;5.13;3.88;;;;;;;;;;5012693;28;20026;-83
2022/09/16 02:04:17;;;;;;;5.95;3.83;;;;;;;;;;5012681;28;20097;-81
2022/09/16 02:06:45;;;;;;;4.68;3.42;;;;;;;;;;5012966;28;20026;-83
2022/09/16 02:09:22;;;;;;;6.80;3.75;;;;;;;;;;5013100;28;20034;-81
2022/09/16 02:11:49;;;;;;;6.10;3.53;;;;;;;;;;5012713;28;20397;-80
2022/09/16 02:14:24;;;;;;;5.68;4.00;;;;;;;;;;5012695;28;20485;-79
2022/09/16 02:16:50;;;;;;;6.97;4.68;;;;;;;;;;5012881;28;20030;-83
2022/09/16 02:19:20;;;;;;;5.20;3.65;;;;;;;;;;5012720;28;20076;-83
2022/09/16 02:21:46;;;;;;;5.05;3.60;;;;;;;;;;5012629;28;20029;-81
2022/09/16 02:24:16;;;;;;;6.50;4.13;;;;;;;;;;5012802;28;20026;-82
2022/09/16 02:26:45;;;;;;;6.10;4.22;;;;;;;;;;5012733;28;20037;-84
2022/09/16 02:29:15;;;;;;;11.52;7.28;;;;;;;;;;5012634;28;20040;-81
2022/09/16 02:31:42;;;;;;;8.38;5.78;;;;;;;;;;5012489;28;20034;-82
2022/09/16 02:34:12;;;;;;;8.18;4.57;;;;;;;;;;5012434;28;20049;-81
2022/09/16 02:36:40;;;;;;;5.13;4.22;;;;;;;;;;5012710;28;20018;-84
2022/09/16 02:39:08;;;;;;;7.63;4.88;;;;;;;;;;5012586;28;20033;-81
2022/09/16 02:41:35;;;;;;;7.13;4.20;;;;;;;;;;5012475;28;20094;-82
2022/09/16 02:44:02;;;;;;;5.18;4.20;;;;;;;;;;5012035;28;20033;-81
2022/09/16 02:46:28;;;;;;;5.30;4.65;;;;;;;;;;5012767;28;20026;-79
2022/09/16 02:49:00;;;;;;;7.18;4.43;;;;;;;;;;5012422;28;20030;-81
2022/09/16 02:51:45;;;;;;;5.32;4.72;;;;;;;;;;5012411;28;20038;-79
2022/09/16 02:54:11;;;;;;;;;;;;;;;;;;5013011;28;20546;-78
2022/09/16 02:56:38;;;;;;;6.68;5.13;;;;;;;;;;5012361;28;19909;-81
2022/09/16 02:59:05;;;;;;;9.25;5.05;;;;;;;;;;5012576;28;20034;-79
2022/09/16 03:01:33;;;;;;;6.03;4.72;;;;;;;;;;5012197;28;20152;-83
2022/09/16 03:03:59;;;;;;;6.65;5.13;;;;;;;;;;5012700;28;20033;-79
2022/09/16 03:06:27;;;;;;;6.00;4.20;;;;;;;;;;5012483;28;20034;-80
2022/09/16 03:08:55;;;;;;;7.05;4.80;;;;;;;;;;5012241;28;20030;-83
2022/09/16 03:11:27;;;;;;;5.22;4.60;;;;;;;;;;5010877;28;20393;-82
2022/09/16 03:14:12;;;;;;;7.13;4.65;;;;;;;;;;5012524;28;20018;-83
2022/09/16 03:17:01;;;;;;;6.95;4.35;;;;;;;;;;5012263;28;20394;-81
2022/09/16 03:19:46;;;;;;;6.32;4.88;;;;;;;;;;5011837;28;20030;-81
2022/09/16 03:22:30;;;;;;;7.72;4.70;;;;;;;;;;5012115;28;20030;-81
2022/09/16 03:24:56;;;;;;;;;;;;;;;;;;5012709;28;20053;-82
2022/09/16 03:27:28;;;;;;;6.50;5.00;;;;;;;;;;5012158;28;20373;-80
2022/09/16 03:30:03;;;;;;;5.18;4.50;;;;;;;;;;5012302;28;20377;-84
2022/09/16 03:32:42;;;;;;;7.25;4.25;;;;;;;;;;5011655;28;20040;-79
2022/09/16 03:35:11;;;;;;;6.63;4.65;;;;;;;;;;5011931;28;20132;-83
2022/09/16 03:37:38;;;;;;;6.13;4.68;;;;;;;;;;5012262;28;20018;-82
2022/09/16 03:40:08;;;;;;;6.90;5.07;;;;;;;;;;5012174;28;20030;-79
2022/09/16 03:42:34;;;;;;;9.82;7.97;;;;;;;;;;5010477;28;20018;-79
2022/09/16 03:45:00;;;;;;;7.50;5.60;;;;;;;;;;5012207;28;20050;-83
2022/09/16 03:47:26;;;;;;;8.10;5.15;;;;;;;;;;5011964;28;20022;-83
2022/09/16 03:49:52;;;;;;;6.13;4.55;;;;;;;;;;5012144;28;20037;-82
2022/09/16 03:52:18;;;;;;;8.15;4.60;;;;;;;;;;5011569;28;20022;-79
2022/09/16 03:54:45;;;;;;;8.95;5.47;;;;;;;;;;5011540;28;20110;-80
2022/09/16 03:57:11;;;;;;;7.50;4.85;;;;;;;;;;5014800;28;20029;-83
2022/09/16 03:59:37;;;;;;;6.55;4.75;;;;;;;;;;5015486;28;20037;-80
2022/09/16 04:02:03;;;;;;;7.72;5.28;;;;;;;;;;5014482;28;20022;-83
2022/09/16 04:04:29;;;;;;;9.13;5.97;;;;;;;;;;5015097;28;20025;-81
2022/09/16 04:06:55;;;;;;;5.28;4.70;;;;;;;;;;5015203;28;20084;-82
2022/09/16 04:09:21;;;;;;;5.60;4.82;;;;;;;;;;5015024;28;20121;-79
2022/09/16 04:11:47;;;;;;;6.43;4.50;;;;;;;;;;5014080;28;20030;-82
2022/09/16 04:14:13;;;;;;;7.47;4.32;;;;;;;;;;5015210;28;20022;-81
2022/09/16 04:16:40;;;;;;;10.10;4.72;;;;;;;;;;5014975;28;20061;-82
2022/09/16 04:19:06;;;;;;;5.78;4.40;;;;;;;;;;5015221;28;20026;-80
2022/09/16 04:21:32;;;;;;;6.95;4.68;;;;;;;;;;5014983;28;20405;-82
2022/09/16 04:23:59;;;;;;;8.82;4.97;;;;;;;;;;5015327;28;20536;-82
2022/09/16 04:26:25;;;;;;;9.93;6.53;;;;;;;;;;5013676;28;20033;-81
2022/09/16 04:28:54;;;;;;;10.73;6.60;;;;;;;;;;5014947;28;20038;-81
2022/09/16 04:31:23;;;;;;;8.23;5.68;;;;;;;;;;5014937;28;20022;-81
2022/09/16 04:33:49;;;;;;;8.02;6.05;;;;;;;;;;5014916;28;20061;-82
2022/09/16 04:36:17;;;;;;;11.07;6.45;;;;;;;;;;5014809;28;20030;-80
2022/09/16 04:38:44;;;;;;;8.27;6.20;;;;;;;;;;5015006;28;20022;-81
2022/09/16 04:41:14;;;;;;;11.25;5.50;;;;;;;;;;5015019;28;20022;-81
2022/09/16 04:43:40;;;;;;;13.85;9.30;;;;;;;;;;5014770;28;20048;-82
2022/09/16 04:46:07;;;;;;;9.30;5.75;;;;;;;;;;5014541;28;20025;-82
2022/09/16 04:48:34;;;;;;;9.35;5.10;;;;;;;;;;5014366;28;20460;-80
2022/09/16 04:51:21;;;;;;;24.92;10.15;;;;;;;;;;5014491;28;20037;-79
2022/09/16 04:53:48;;;;;;;19.23;7.50;;;;;;;;;;5014576;28;20069;-80
2022/09/16 04:56:19;;;;;;;24.70;19.83;;;;;;;;;;5014191;28;20481;-78
2022/09/16 04:58:46;;;;;;;10.35;6.07;;;;;;;;;;5014397;28;20022;-79
2022/09/16 05:01:14;;;;;;;9.30;6.70;;;;;;;;;;5014111;28;20081;-78
2022/09/16 05:03:40;;;;;;;14.25;10.65;;;;;;;;;;5014518;28;20381;-78
2022/09/16 05:06:08;;;;;;;28.88;21.02;;;;;;;;;;5013651;28;20033;-78
2022/09/16 05:08:34;;;;;;;13.32;8.43;;;;;;;;;;5014222;28;20124;-78
2022/09/16 05:11:10;;;;;;;18.92;14.13;;;;;;;;;;5012823;28;20033;-78
2022/09/16 05:13:37;;;;;;;17.30;12.15;;;;;;;;;;5012799;28;20038;-79
2022/09/16 05:16:22;;;;;;;7.50;6.10;;;;;;;;;;5013853;28;20030;-79
2022/09/16 05:18:50;;;;;;;6.90;4.68;;;;;;;;;;5013776;28;20029;-78
2022/09/16 05:21:17;;;;;;;8.32;4.22;;;;;;;;;;5013929;28;20097;-81
2022/09/16 05:23:44;;;;;;;9.38;4.88;;;;;;;;;;5013247;28;20050;-80
2022/09/16 05:26:11;;;;;;;8.32;4.82;;;;;;;;;;5013293;28;20044;-80
2022/09/16 05:28:37;;;;;;;7.47;4.78;;;;;;;;;;5013340;28;20068;-80
2022/09/16 05:31:19;;;;;;;6.55;4.68;;;;;;;;;;5006483;28;20072;-80
2022/09/16 05:33:47;;;;;;;7.13;5.30;;;;;;;;;;5011606;28;20065;-78
2022/09/16 05:36:15;;;;;;;7.72;5.25;;;;;;;;;;5022458;28;20673;-78
2022/09/16 05:38:42;;;;;;;10.80;5.30;;;;;;;;;;5031212;28;20108;-79
2022/09/16 05:41:08;;;;;;;9.15;4.85;;;;;;;;;;5032246;28;20033;-78
2022/09/16 05:43:34;;;;;;;6.80;5.47;;;;;;;;;;5031536;28;20113;-80
2022/09/16 05:46:01;;;;;;;13.57;5.40;;;;;;;;;;5031924;28;20026;-79
2022/09/16 05:48:27;;;;;;;6.95;5.00;;;;;;;;;;5031736;28;20041;-81
2022/09/16 05:50:54;;;;;;;10.82;7.57;;;;;;;;;;5013801;28;20041;-79
2022/09/16 05:53:20;;;;;;;11.40;8.02;;;;;;;;;;5002070;28;20021;-77
2022/09/16 05:56:05;;;;;;;9.95;8.43;;;;;;;;;;5020152;28;20136;-78
2022/09/16 05:58:33;;;;;;;9.57;7.50;;;;;;;;;;4992258;28;20026;-79
2022/09/16 06:01:10;;;;;;;13.57;9.98;;;;;;;;;;4991738;28;20034;-78
2022/09/16 06:03:36;;;;;;;15.05;10.93;;;;;;;;;;4992202;28;20029;-81
2022/09/16 06:06:04;;;;;;;17.52;11.73;;;;;;;;;;4992202;28;20053;-79
2022/09/16 06:08:31;;;;;;;18.13;14.02;;;;;;;;;;5018371;28;20033;-77
2022/09/16 06:11:00;;;;;;;15.48;11.93;;;;;;;;;;5012154;28;20037;-81
2022/09/16 06:13:26;;;;;;;12.85;9.63;;;;;;;;;;5012065;28;20034;-79
2022/09/16 06:15:53;;;;;;;10.68;9.57;;;;;;;;;;5011462;28;20065;-80
2022/09/16 06:18:20;;;;;;;12.23;8.75;;;;;;;;;;5017510;28;20026;-78
2022/09/16 06:20:46;;;;;;;15.20;11.27;;;;;;;;;;5018990;28;20080;-80
2022/09/16 06:23:12;;;;;;;12.52;8.55;;;;;;;;;;5011540;28;20026;-80
2022/09/16 06:25:38;;;;;;;30.02;24.88;;;;;;;;;;5014563;28;20465;-79
2022/09/16 06:28:05;;;;;;;15.50;11.27;;;;;;;;;;5021269;28;20053;-78
2022/09/16 06:30:31;;;;;;;16.77;10.35;;;;;;;;;;5005339;28;20049;-79
2022/09/16 06:32:57;;;;;;;19.05;12.57;;;;;;;;;;5016633;28;20129;-77
2022/09/16 06:35:23;;;;;;;14.30;10.45;;;;;;;;;;5018322;28;20477;-78
2022/09/16 06:37:49;;;;;;;14.52;10.90;;;;;;;;;;5010719;28;20022;-80
2022/09/16 06:40:16;;;;;;;14.25;9.75;;;;;;;;;;5001315;28;20489;-81
2022/09/16 06:42:42;;;;;;;11.30;9.05;;;;;;;;;;5009088;28;20022;-79
2022/09/16 06:45:08;;;;;;;10.00;7.78;;;;;;;;;;5003780;28;20566;-78
2022/09/16 06:47:34;;;;;;;12.30;7.57;;;;;;;;;;5009604;28;20678;-78
2022/09/16 06:50:00;;;;;;;32.45;29.00;;;;;;;;;;5016211;28;20188;-79
2022/09/16 06:52:27;;;;;;;26.20;23.42;;;;;;;;;;5011043;28;20053;-77
2022/09/16 06:54:54;;;;;;;20.35;17.75;;;;;;;;;;5009522;28;20018;-77
2022/09/16 06:57:21;;;;;;;10.43;9.38;;;;;;;;;;5011063;28;20025;-78
2022/09/16 06:59:48;;;;;;;18.33;16.45;;;;;;;;;;5016922;28;20026;-80
2022/09/16 07:02:15;;;;;;;29.65;26.83;;;;;;;;;;5012237;28;20140;-78
2022/09/16 07:04:41;;;;;;;18.65;16.48;;;;;;;;;;5010899;28;20101;-79
2022/09/16 07:07:07;;;;;;;17.30;14.45;;;;;;;;;;5020153;28;20030;-81
2022/09/16 07:09:33;;;;;;;13.38;11.98;;;;;;;;;;5014758;28;20038;-79
2022/09/16 07:12:00;;;;;;;9.18;8.27;;;;;;;;;;5014218;28;20148;-79
2022/09/16 07:14:26;;;;;;;8.48;7.20;;;;;;;;;;5016895;28;20096;-78
2022/09/16 07:16:52;;;;;;;9.88;6.35;;;;;;;;;;5012998;28;20029;-79
2022/09/16 07:19:18;;;;;;;5.90;4.55;;;;;;;;;;5018342;28;20065;-79
2022/09/16 07:21:44;;;;;;;5.28;3.42;;;;;;;;;;5010975;28;20022;-77
2022/09/16 07:24:12;;;;;;;9.32;4.10;;;;;;;;;;5010770;28;20100;-79
2022/09/16 07:26:38;;;;;;;7.45;4.30;;;;;;;;;;5010949;28;20078;-77
2022/09/16 07:29:06;;;;;;;7.38;3.78;;;;;;;;;;5010395;28;20060;-78
2022/09/16 07:31:34;;;;;;;7.50;4.50;;;;;;;;;;5015032;28;20041;-79
2022/09/16 07:34:00;;;;;;;5.40;3.83;;;;;;;;;;5020350;28;20548;-77
2022/09/16 07:36:28;;;;;;;4.75;3.15;;;;;;;;;;5023086;28;20374;-79
2022/09/16 07:38:56;;;;;;;7.03;3.88;;;;;;;;;;5016802;28;20025;-78
2022/09/16 07:41:24;;;;;;;6.80;3.70;;;;;;;;;;5022246;28;20104;-78
2022/09/16 07:43:50;;;;;;;5.50;3.30;;;;;;;;;;5034199;28;20473;-76
2022/09/16 07:46:17;;;;;;;8.45;4.63;;;;;;;;;;5027647;28;20033;-79
2022/09/16 07:48:44;;;;;;;6.72;4.18;;;;;;;;;;5033900;28;20476;-78
2022/09/16 07:51:11;;;;;;;8.18;4.00;;;;;;;;;;5022567;28;20080;-79
2022/09/16 07:53:38;;;;;;;6.55;3.35;;;;;;;;;;5024000;28;20422;-77
2022/09/16 07:56:07;;;;;;;5.20;3.20;;;;;;;;;;5022685;28;20121;-78
2022/09/16 07:58:33;;;;;;;7.85;3.65;;;;;;;;;;5014518;28;20033;-79
2022/09/16 08:00:59;;;;;;;19.77;17.23;;;;;;;;;;5013783;28;20050;-80
2022/09/16 08:03:25;;;;;;;43.05;38.80;;;;;;;;;;5012930;28;20030;-78
2022/09/16 08:05:51;;;;;;;28.10;25.35;;;;;;;;;;5014197;28;20032;-79
2022/09/16 08:08:17;;;;;;;14.93;12.15;;;;;;;;;;5014873;28;20142;-78
2022/09/16 08:10:43;;;;;;;9.85;7.45;;;;;;;;;;5023302;28;20021;-81
2022/09/16 08:13:10;;;;;;;9.98;5.93;;;;;;;;;;5014401;28;20042;-79
2022/09/16 08:15:36;;;;;;;8.52;5.22;;;;;;;;;;5014536;28;20033;-79
2022/09/16 08:18:02;;;;;;;10.70;4.47;;;;;;;;;;5024317;28;20040;-78
2022/09/16 08:20:28;;;;;;;9.93;4.30;;;;;;;;;;5015825;28;20033;-78
2022/09/16 08:22:54;;;;;;;6.93;3.60;;;;;;;;;;5017148;28;20030;-78
2022/09/16 08:25:20;;;;;;;8.05;3.35;;;;;;;;;;5013495;28;20097;-78
2022/09/16 08:27:46;;;;;;;6.22;2.45;;;;;;;;;;5013536;28;20380;-80
2022/09/16 08:30:12;;;;;;;8.77;3.10;;;;;;;;;;5013147;28;20022;-73
2022/09/16 08:32:38;;;;;;;5.93;2.80;;;;;;;;;;5014478;28;20507;-79
2022/09/16 08:35:05;;;;;;;5.50;2.80;;;;;;;;;;5002759;28;20088;-78
2022/09/16 08:37:31;;;;;;;8.07;2.47;;;;;;;;;;5009795;28;20099;-79
2022/09/16 08:39:57;;;;;;;6.47;2.55;;;;;;;;;;4995949;28;20030;-78
2022/09/16 08:42:28;;;;;;;6.85;3.20;;;;;;;;;;5002171;28;20083;-79
2022/09/16 08:45:08;;;;;;;5.97;2.80;;;;;;;;;;5027775;28;20059;-80
2022/09/16 08:47:53;;;;;;;6.25;2.40;;;;;;;;;;4995445;28;20030;-79
2022/09/16 08:50:26;;;;;;;7.85;2.60;;;;;;;;;;4993362;28;20104;-80
2022/09/16 08:52:52;;;;;;;7.30;2.25;;;;;;;;;;5012526;28;20072;-79
2022/09/16 08:55:53;;;;;;;6.40;2.35;;;;;;;;;;5015691;28;20461;-80
2022/09/16 08:58:21;;;;;;;6.40;2.28;;;;;;;;;;4957131;28;20052;-75
2022/09/16 09:00:58;;;;;;;4.10;2.40;;;;;;;;;;4950798;29;20042;-79
2022/09/16 09:03:30;;;;;;;7.63;2.25;;;;;;;;;;4950855;28;20749;-80
2022/09/16 09:06:00;;;;;;;4.32;2.13;;;;;;;;;;4967305;28;20059;-80
2022/09/16 09:08:45;;;;;;;6.70;2.40;;;;;;;;;;5015083;28;20533;-82
2022/09/16 09:11:25;;;;;;;7.63;2.40;;;;;;;;;;5001072;28;20546;-81
2022/09/16 09:13:51;;;;;;;5.05;2.00;;;;;;;;;;5015144;28;20030;-81
2022/09/16 09:16:23;;;;;;;9.90;2.78;;;;;;;;;;5017719;28;20017;-80
2022/09/16 09:18:56;;;;;;;9.20;3.28;;;;;;;;;;5020847;28;20026;-79
2022/09/16 09:21:26;;;;;;;6.95;2.30;;;;;;;;;;5002456;28;20026;-80
2022/09/16 09:23:55;;;;;;;9.32;3.30;;;;;;;;;;5012052;28;20036;-81
2022/09/16 09:26:22;;;;;;;7.88;3.30;;;;;;;;;;5009665;28;20033;-77
2022/09/16 09:28:51;;;;;;;16.45;3.22;;;;;;;;;;5004919;28;20041;-78
2022/09/16 09:31:17;;;;;;;6.32;1.55;;;;;;;;;;5010680;28;20080;-79
2022/09/16 09:33:50;;;;;;;7.32;2.70;;;;;;;;;;5010182;28;20072;-77
2022/09/16 09:36:35;;;;;;;6.65;2.50;;;;;;;;;;5022816;28;20029;-77
2022/09/16 09:39:20;;;;;;;11.88;2.58;;;;;;;;;;5032073;28;20087;-78
2022/09/16 09:41:50;;;;;;;9.80;3.33;;;;;;;;;;5021913;28;20032;-79
2022/09/16 09:44:35;;;;;;;9.82;3.00;;;;;;;;;;5012053;28;20038;-80
2022/09/16 09:47:06;;;;;;;12.02;3.13;;;;;;;;;;5015209;28;20030;-78
2022/09/16 09:49:46;;;;;;;13.93;2.97;;;;;;;;;;5011960;28;20026;-79
2022/09/16 09:52:31;;;;;;;8.85;2.97;;;;;;;;;;5014237;28;20026;-82
2022/09/16 09:55:00;;;;;;;8.20;3.05;;;;;;;;;;5021824;28;20029;-82
2022/09/16 09:57:46;;;;;;;9.98;3.50;;;;;;;;;;5020527;28;20480;-82
2022/09/16 10:00:15;;;;;;;14.20;3.72;;;;;;;;;;5021412;28;20025;-82
2022/09/16 10:02:42;;;;;;;8.07;3.13;;;;;;;;;;5018981;28;20531;-83
2022/09/16 10:05:19;;;;;;;8.38;2.90;;;;;;;;;;5021316;28;20037;-79
2022/09/16 10:07:45;;;;;;;11.02;2.67;;;;;;;;;;5015391;28;20144;-79
2022/09/16 10:10:33;;;;;;;7.68;2.85;;;;;;;;;;5011727;28;20053;-82
2022/09/16 10:13:12;;;;;;;5.13;2.17;;;;;;;;;;5003801;28;20424;-81
2022/09/16 10:15:52;;;;;;;4.03;2.38;;;;;;;;;;5013056;28;20026;-82
2022/09/16 10:18:28;;;;;;;12.20;9.00;;;;;;;;;;5007144;28;20096;-85
2022/09/16 10:20:57;;;;;;;5.68;2.88;;;;;;;;;;5002062;28;20037;-85
2022/09/16 10:23:24;;;;;;;4.60;2.08;;;;;;;;;;5012289;28;20029;-83
2022/09/16 10:26:02;;;;;;;4.90;2.30;;;;;;;;;;4989358;28;20822;-82
2022/09/16 10:28:29;;;;;;;11.00;7.28;;;;;;;;;;5012710;28;20049;-80
2022/09/16 10:30:57;;;;;;;5.43;2.13;;;;;;;;;;5019109;28;20034;-80
2022/09/16 10:33:31;;;;;;;4.15;2.05;;;;;;;;;;5012196;28;20041;-80
2022/09/16 10:35:59;;;;;;;7.18;2.33;;;;;;;;;;4996990;28;20127;-82
2022/09/16 10:38:36;;;;;;;5.13;2.72;;;;;;;;;;5010737;28;20057;-85
2022/09/16 10:41:21;;;;;;;8.75;5.78;;;;;;;;;;5015950;28;20756;-83
2022/09/16 10:43:57;;;;;;;3.42;1.80;;;;;;;;;;5011751;28;20086;-81
2022/09/16 10:46:24;;;;;;;6.07;2.10;;;;;;;;;;5018500;28;20045;-82
2022/09/16 10:48:53;;;;;;;5.32;2.70;;;;;;;;;;5012120;28;20026;-79
2022/09/16 10:51:23;;;;;;;5.15;2.08;;;;;;;;;;5012333;28;20013;-82
2022/09/16 10:54:04;;;;;;;3.38;1.30;;;;;;;;;;5027188;28;20014;-81
2022/09/16 10:56:49;;;;;;;3.38;1.80;;;;;;;;;;5018731;28;20033;-83
2022/09/16 10:59:15;;;;;;;1.98;1.65;;;;;;;;;;5019012;28;20060;-82
2022/09/16 11:01:54;;;;;;;4.60;1.50;;;;;;;;;;5020291;28;20029;-80
2022/09/16 11:04:26;;;;;;;7.57;2.53;;;;;;;;;;5017765;28;20052;-82
2022/09/16 11:06:58;;;;;;;5.25;1.20;;;;;;;;;;5023402;28;20061;-81
2022/09/16 11:09:43;;;;;;;6.22;1.75;;;;;;;;;;5024377;28;20030;-81
2022/09/16 11:12:12;;;;;;;3.55;1.25;;;;;;;;;;5015780;28;20686;-83
2022/09/16 11:14:47;;;;;;;4.60;1.95;;;;;;;;;;5016927;28;20064;-82
2022/09/16 11:17:20;;;;;;;7.15;2.70;;;;;;;;;;5022724;28;20396;-78
2022/09/16 11:19:53;;;;;;;3.92;1.40;;;;;;;;;;5005452;28;20056;-81
2022/09/16 11:22:23;;;;;;;4.00;1.55;;;;;;;;;;5015017;28;20018;-83
2022/09/16 11:24:59;;;;;;;2.25;1.02;;;;;;;;;;5009499;28;20034;-82
2022/09/16 11:27:44;;;;;;;3.60;1.20;;;;;;;;;;5015688;28;20037;-82
2022/09/16 11:30:14;;;;;;;7.55;4.60;;;;;;;;;;5018967;28;20633;-82
2022/09/16 11:32:46;;;;;;;3.45;2.17;;;;;;;;;;5020312;28;20033;-83
2022/09/16 11:35:16;;;;;;;5.88;1.60;;;;;;;;;;5019800;28;20062;-84
2022/09/16 11:38:05;;;;;;;17.77;16.10;;;;;;;;;;5020449;28;20075;-82
2022/09/16 11:40:50;;;;;;;4.60;1.23;;;;;;;;;;5002632;28;20520;-82
2022/09/16 11:43:31;;;;;;;3.10;1.42;;;;;;;;;;5018454;28;20104;-82
2022/09/16 11:46:03;;;;;;;2.80;1.50;;;;;;;;;;5019835;28;20037;-84
2022/09/16 11:48:47;;;;;;;2.45;1.20;;;;;;;;;;5022393;28;20036;-82
2022/09/16 11:51:32;;;;;;;5.32;1.63;;;;;;;;;;5019696;28;20025;-81
2022/09/16 11:53:58;;;;;;;4.25;1.77;;;;;;;;;;5021905;28;20033;-81
2022/09/16 11:56:27;;;;;;;3.70;1.08;;;;;;;;;;5005964;28;20087;-83
2022/09/16 11:58:56;;;;;;;3.40;1.35;;;;;;;;;;5014197;28;20026;-85
2022/09/16 12:01:22;;;;;;;3.63;1.02;;;;;;;;;;5013354;28;20034;-81
2022/09/16 12:03:51;;;;;;;29.27;10.75;;;;;;;;;;5015556;28;20026;-83
2022/09/16 12:06:19;;;;;;;44.88;18.80;;;;;;;;;;5016156;28;20025;-86
2022/09/16 12:08:52;;;;;;;10.55;4.65;;;;;;;;;;5018169;28;20042;-83
2022/09/16 12:11:31;;;;;;;11.15;3.35;;;;;;;;;;5012684;28;20790;-82
2022/09/16 12:14:01;;;;;;;5.35;1.63;;;;;;;;;;5021839;28;20029;-83
2022/09/16 12:16:31;;;;;;;4.85;1.63;;;;;;;;;;5000070;28;20026;-79
2022/09/16 12:18:59;;;;;;;3.22;0.82;;;;;;;;;;5011808;28;20507;-83
2022/09/16 12:21:41;;;;;;;6.82;1.58;;;;;;;;;;5024103;28;20022;-85
2022/09/16 12:24:27;;;;;;;5.15;1.35;;;;;;;;;;5010344;28;20025;-81
2022/09/16 12:27:01;;;;;;;18.58;7.10;;;;;;;;;;5013735;28;20044;-80
2022/09/16 12:29:32;;;;;;;45.53;13.43;;;;;;;;;;5013268;28;20037;-82
2022/09/16 12:32:08;;;;;;;10.73;3.35;;;;;;;;;;5014762;28;20026;-83
2022/09/16 12:34:37;;;;;;;33.92;12.63;;;;;;;;;;5014191;28;20568;-80
2022/09/16 12:37:09;;;;;;;17.63;5.65;;;;;;;;;;5028871;28;20504;-81
2022/09/16 12:39:35;;;;;;;23.55;7.47;;;;;;;;;;5013774;28;20156;-82
2022/09/16 12:42:20;;;;;;;20.27;5.43;;;;;;;;;;5012968;28;20037;-81
2022/09/16 12:44:46;;;;;;;10.95;3.60;;;;;;;;;;5014254;28;20030;-83
2022/09/16 12:47:22;;;;;;;6.13;1.73;;;;;;;;;;5013007;28;20058;-77
2022/09/16 12:50:07;;;;;;;6.30;2.03;;;;;;;;;;5013442;28;20521;-81
2022/09/16 12:52:53;;;;;;;4.25;1.52;;;;;;;;;;5012900;28;20025;-79
2022/09/16 12:55:28;;;;;;;10.93;3.40;;;;;;;;;;5013550;28;20038;-79
2022/09/16 12:57:54;;;;;;;3.85;1.23;;;;;;;;;;5007780;28;20034;-78
2022/09/16 13:00:22;;;;;;;4.15;1.60;;;;;;;;;;5009141;28;20029;-78
2022/09/16 13:02:53;;;;;;;5.13;1.60;;;;;;;;;;5011716;28;20481;-78
2022/09/16 13:05:37;;;;;;;4.43;1.70;;;;;;;;;;4999299;28;20037;-79
2022/09/16 13:08:05;;;;;;;3.15;1.15;;;;;;;;;;5003971;28;20034;-78
2022/09/16 13:10:36;;;;;;;4.18;1.15;;;;;;;;;;5020355;28;20040;-79
2022/09/16 13:13:03;;;;;;;4.75;2.97;;;;;;;;;;5002243;28;20075;-79
2022/09/16 13:15:33;;;;;;;4.40;2.90;;;;;;;;;;5013737;28;20025;-81
2022/09/16 13:18:17;;;;;;;11.70;9.93;;;;;;;;;;5013146;28;20068;-82
2022/09/16 13:20:46;;;;;;;;;;;;;;;;;;5018081;28;20385;-80
2022/09/16 13:26:15;;;;;;;2.58;0.88;;;;;;;;;;5012550;28;20093;-82
2022/09/16 13:28:42;;;;;;;4.28;1.20;;;;;;;;;;5015685;28;20095;-81
2022/09/16 13:31:08;;;;;;;1.90;0.63;;;;;;;;;;4995512;28;20030;-81
2022/09/16 13:33:35;;;;;;;3.25;0.70;;;;;;;;;;5014395;28;20052;-81
2022/09/16 13:36:13;;;;;;;2.35;0.90;;;;;;;;;;4988010;28;20044;-81
2022/09/16 13:38:40;;;;;;;5.13;1.40;;;;;;;;;;5025715;28;20372;-82
2022/09/16 13:41:10;;;;;;;3.58;1.30;;;;;;;;;;5030194;28;20029;-82
2022/09/16 13:43:48;;;;;;;3.95;1.20;;;;;;;;;;5032938;28;20025;-81
2022/09/16 13:46:33;;;;;;;9.85;1.30;;;;;;;;;;5024848;28;20033;-84
2022/09/16 13:49:03;;;;;;;4.63;1.60;;;;;;;;;;5020729;28;20026;-80
2022/09/16 13:51:29;;;;;;;4.00;1.95;;;;;;;;;;5022952;28;20034;-81
2022/09/16 13:54:02;;;;;;;2.47;0.90;;;;;;;;;;5021297;28;20096;-81
2022/09/16 13:56:46;;;;;;;3.50;1.30;;;;;;;;;;5020578;28;20375;-80
2022/09/16 13:59:25;;;;;;;2.72;1.23;;;;;;;;;;5010384;28;20029;-81
2022/09/16 14:01:55;;;;;;;1.88;0.82;;;;;;;;;;5010320;28;20044;-80
2022/09/16 14:04:44;;;;;;;2.67;0.90;;;;;;;;;;5018323;28;21088;-79
2022/09/16 14:07:36;;;;;;;2.67;0.95;;;;;;;;;;5013517;28;20033;-81
2022/09/16 14:10:23;;;;;;;2.85;0.77;;;;;;;;;;4977770;28;20077;-79
2022/09/16 14:12:52;;;;;;;6.88;1.83;;;;;;;;;;4992967;28;20461;-80
2022/09/16 14:15:20;;;;;;;3.97;2.22;;;;;;;;;;5006066;28;20098;-81
2022/09/16 14:17:47;;;;;;;3.78;1.58;;;;;;;;;;4995287;28;20045;-82
2022/09/16 14:20:15;;;;;;;3.28;1.00;;;;;;;;;;5010067;28;20080;-80
2022/09/16 14:22:43;;;;;;;2.40;0.90;;;;;;;;;;5005890;28;20040;-80
2022/09/16 14:25:27;;;;;;;8.38;4.38;;;;;;;;;;5011283;28;20022;-81
2022/09/16 14:28:06;;;;;;;2.97;1.17;;;;;;;;;;5010967;28;20472;-82
2022/09/16 14:30:32;;;;;;;4.35;1.95;;;;;;;;;;5005482;28;20051;-79
2022/09/16 14:33:01;;;;;;;4.35;2.00;;;;;;;;;;5000162;28;20129;-82
2022/09/16 14:35:27;;;;;;;3.90;1.67;;;;;;;;;;5012683;28;20409;-80
2022/09/16 14:37:55;;;;;;;4.78;1.40;;;;;;;;;;5012213;28;20026;-82
2022/09/16 14:40:22;;;;;;;3.70;1.67;;;;;;;;;;5011188;28;20029;-80
2022/09/16 14:42:50;;;;;;;2.25;0.85;;;;;;;;;;5011161;28;20018;-80
2022/09/16 14:45:17;;;;;;;2.45;0.98;;;;;;;;;;5009337;28;21815;-80
2022/09/16 14:47:43;;;;;;;5.72;1.30;;;;;;;;;;5010508;28;20076;-81
2022/09/16 14:50:33;;;;;;;4.95;0.90;;;;;;;;;;5012595;28;20033;-82
2022/09/16 14:53:03;;;;;;;4.35;1.42;;;;;;;;;;5007049;28;20064;-80
2022/09/16 14:55:30;;;;;;;3.85;0.88;;;;;;;;;;5011061;28;20033;-81
2022/09/16 14:57:57;;;;;;;3.20;1.63;;;;;;;;;;5010960;28;20030;-81
2022/09/16 15:00:25;;;;;;;2.85;1.00;;;;;;;;;;5006591;28;20485;-82
2022/09/16 15:03:14;;;;;;;2.10;1.33;;;;;;;;;;4998029;28;20058;-81
2022/09/16 15:05:43;;;;;;;4.03;0.93;;;;;;;;;;4994245;28;20572;-81